Tropical Cyclones
[Index]
Main Index Home Page Stock Weather Photos Extreme Storms Discussion Storm News and Storm Chasing Reports Tropical Cyclones / Hurricanes / Typhoons Weather Data and Links Wild Fires / Bushfires Weather Observation Techniques Weather Picture Catalogue Tornado Pictures and Reports Stock Video Footage and DVDs for sale
Season 2017-2018 Tropical Cyclone JOYCE Track Map
Season 2017-2018 Summaries (Operational Data): [AU] [SIO] [SPAC] [SH]
<<- Previous TC | 2017-2018 Season | Next TC ->>

click for intensity scale information  Lat/long Grid: Show Hide

 Date Labels: Show Hide

Operational Tropical Cyclone Data : JTWC Advisories

Name: JOYCE
Number: 1805

07 Jan 2018 00:00 UTC to 17 Jan 2018 06:00 UTC

    date/time    lat    long     hPa   cat  kts
2018-01-07 00   13.7   130.0    1008         15          
2018-01-07 06   13.7   129.5    1008         15          
2018-01-07 12   15.2   129.6    1007         15          
2018-01-07 18   15.5   129.1    1006         15          
2018-01-08 00   15.7   129.5    1006         15          
2018-01-08 06   15.9   127.8    1010         15          
2018-01-08 12   16.0   127.2    1010         15          
2018-01-08 18   16.1   126.5    1007         20          
2018-01-09 00   16.3   125.9    1007         20          
2018-01-09 06   16.7   125.2    1007         20          
2018-01-09 12   17.3   124.4    1004         25          
2018-01-09 18   17.3   123.7    1004         25          
2018-01-10 00   17.0   123.1    1002         30          
2018-01-10 06   16.1   122.7    1000         25          
2018-01-10 12   16.2   122.5     999         30          
2018-01-10 18   16.7   122.1     995    1    35          
2018-01-11 00   16.8   121.7     996    1    35          
2018-01-11 06   17.3   121.6     995    1    35          
2018-01-11 12   18.0   121.5     990    1    45          
2018-01-11 18   18.7   121.6     987    2    50          
2018-01-12 00   19.5   121.0     989    1    45          
2018-01-12 06   19.8   120.6     988    1    45          
2018-01-12 12   20.3   119.8     990    1    45          
2018-01-12 18   20.7   119.4     993    1    40          
2018-01-13 00   21.4   118.5     993    1    40          
2018-01-13 06   22.2   117.9     995    1    35          
2018-01-13 12   23.7   117.2     999         25          
2018-01-13 18   24.6   116.2     999         25          
2018-01-14 00   25.6   115.5    1001         20          
2018-01-14 06   26.1   115.1    1002         20          
2018-01-14 12   27.1   114.6    1002         20          
2018-01-14 18   27.7   113.8    1004         25          
2018-01-15 00   29.1   112.8    1005                     
2018-01-15 06   29.5   112.4    1003                     
2018-01-15 12   30.0   112.8    1003                     
2018-01-15 18   30.6   113.5    1003                     
2018-01-16 00   30.4   113.7    1002                     
2018-01-16 06   32.1   115.6    1003                     
2018-01-16 12   32.4   116.7    1003                     
2018-01-16 18   34.1   117.5    1002                     
2018-01-17 00   36.5   118.2    1002                     
2018-01-17 06   36.2   120.8    1002                     
Winds are 10-min average.

Tropical cyclone tracks developed by Michael Bath using operational warnings and advisories and Google Maps.


[Australian Severe Weather index] [Copyright Notice] [Email Contacts] [Search This Site] [Privacy Policy]
Document: tropical_cyclone_joyce.htm Updated: 11 March 2020